Time;durP1;ratioP1;P1;durP2;ratioP2;P2;SDS_P1;SDS_P2;PMS_P1;PMS_P2;Temp;Humidity;BMP_temperature;BMP_pressure;BME280_temperature;BME280_humidity;BME280_pressure;Samples;Min_cycle;Max_cycle;Signal;HPM_P1;HPM_P2
2023/03/06 00:00:07;;;;;;;7.25;2.85;;;;;;;;;;5043472;28;20481;-76
2023/03/06 00:02:33;;;;;;;4.60;2.83;;;;;;;;;;5029615;28;20036;-76
2023/03/06 00:04:58;;;;;;;5.57;3.00;;;;;;;;;;5046602;28;20106;-76
2023/03/06 00:07:23;;;;;;;5.32;2.85;;;;;;;;;;5044107;28;20028;-76
2023/03/06 00:09:49;;;;;;;5.72;3.13;;;;;;;;;;5031016;28;20104;-76
2023/03/06 00:12:14;;;;;;;5.10;3.03;;;;;;;;;;5047378;28;20021;-76
2023/03/06 00:14:40;;;;;;;5.45;2.97;;;;;;;;;;5040658;28;20044;-76
2023/03/06 00:17:05;;;;;;;5.90;3.40;;;;;;;;;;5047168;28;20345;-76
2023/03/06 00:19:30;;;;;;;4.72;2.80;;;;;;;;;;5035271;28;20033;-77
2023/03/06 00:21:56;;;;;;;6.45;3.08;;;;;;;;;;5038667;28;20021;-76
2023/03/06 00:24:21;;;;;;;5.10;3.13;;;;;;;;;;5035862;28;20138;-76
2023/03/06 00:26:47;;;;;;;5.25;3.20;;;;;;;;;;5034591;28;20025;-77
2023/03/06 00:29:12;;;;;;;5.63;3.15;;;;;;;;;;5034693;28;20028;-77
2023/03/06 00:31:37;;;;;;;6.47;3.40;;;;;;;;;;5039894;28;20377;-76
2023/03/06 00:34:03;;;;;;;5.25;2.92;;;;;;;;;;5045059;28;20637;-76
2023/03/06 00:36:28;;;;;;;6.15;3.50;;;;;;;;;;5022572;28;20041;-76
2023/03/06 00:38:54;;;;;;;5.90;3.45;;;;;;;;;;5037412;28;20127;-76
2023/03/06 00:41:19;;;;;;;5.35;3.55;;;;;;;;;;5047459;28;20387;-76
2023/03/06 00:43:45;;;;;;;6.07;3.97;;;;;;;;;;5033047;28;20017;-76
2023/03/06 00:46:10;;;;;;;5.47;3.60;;;;;;;;;;5048007;28;20115;-77
2023/03/06 00:48:36;;;;;;;6.90;3.80;;;;;;;;;;5047622;28;20029;-76
2023/03/06 00:51:01;;;;;;;6.25;3.83;;;;;;;;;;5030661;28;20035;-77
2023/03/06 00:53:26;;;;;;;8.18;3.75;;;;;;;;;;5047068;28;20021;-76
2023/03/06 00:55:52;;;;;;;6.55;3.67;;;;;;;;;;5027880;28;20025;-76
2023/03/06 00:58:17;;;;;;;6.65;3.80;;;;;;;;;;5030958;28;20027;-76
2023/03/06 01:00:43;;;;;;;6.25;3.67;;;;;;;;;;5045055;28;20021;-76
2023/03/06 01:03:08;;;;;;;7.45;4.25;;;;;;;;;;5029076;28;20025;-76
2023/03/06 01:05:35;;;;;;;7.22;3.78;;;;;;;;;;5023957;28;20534;-77
2023/03/06 01:08:01;;;;;;;6.20;3.80;;;;;;;;;;5027963;28;20408;-76
2023/03/06 01:10:26;;;;;;;6.93;4.05;;;;;;;;;;5047062;28;20051;-76
2023/03/06 01:12:53;;;;;;;6.20;3.95;;;;;;;;;;5044484;28;20036;-77
2023/03/06 01:15:19;;;;;;;6.95;3.58;;;;;;;;;;5048437;28;20055;-76
2023/03/06 01:17:44;;;;;;;6.18;3.70;;;;;;;;;;5028964;28;20033;-76
2023/03/06 01:20:13;;;;;;;6.70;3.63;;;;;;;;;;5030809;28;20028;-77
2023/03/06 01:22:38;;;;;;;7.45;4.20;;;;;;;;;;5049586;28;20548;-76
2023/03/06 01:25:04;;;;;;;8.27;3.67;;;;;;;;;;5024298;28;20197;-77
2023/03/06 01:27:30;;;;;;;7.10;3.22;;;;;;;;;;5044116;28;20477;-76
2023/03/06 01:29:55;;;;;;;6.35;3.38;;;;;;;;;;5042310;28;20029;-77
2023/03/06 01:32:20;;;;;;;6.03;3.55;;;;;;;;;;5046761;28;20032;-76
2023/03/06 01:34:46;;;;;;;5.72;3.33;;;;;;;;;;5029187;28;20030;-77
2023/03/06 01:37:12;;;;;;;6.45;3.63;;;;;;;;;;5047906;28;20029;-76
2023/03/06 01:39:37;;;;;;;5.10;3.22;;;;;;;;;;5027519;28;20079;-76
2023/03/06 01:42:03;;;;;;;7.28;3.95;;;;;;;;;;5031888;28;20025;-76
2023/03/06 01:44:29;;;;;;;5.40;3.30;;;;;;;;;;5031025;28;20032;-77
2023/03/06 01:46:54;;;;;;;7.70;3.30;;;;;;;;;;5044313;28;20032;-77
2023/03/06 01:49:35;;;;;;;5.03;3.17;;;;;;;;;;5048052;28;20029;-77
2023/03/06 01:52:14;;;;;;;5.07;2.80;;;;;;;;;;5026564;28;20017;-76
2023/03/06 01:54:49;;;;;;;5.75;3.33;;;;;;;;;;5050486;28;20044;-76
2023/03/06 01:57:31;;;;;;;5.43;2.88;;;;;;;;;;5050778;28;20485;-77
2023/03/06 02:00:03;;;;;;;4.00;2.40;;;;;;;;;;5050916;28;20025;-77
2023/03/06 02:02:28;;;;;;;4.32;2.58;;;;;;;;;;5043479;28;20021;-76
2023/03/06 02:04:54;;;;;;;6.28;2.78;;;;;;;;;;5036079;28;20132;-77
2023/03/06 02:07:20;;;;;;;4.90;2.83;;;;;;;;;;5031464;28;20102;-77
2023/03/06 02:09:45;;;;;;;4.90;2.60;;;;;;;;;;5051423;28;20389;-77
2023/03/06 02:12:14;;;;;;;5.05;2.53;;;;;;;;;;5046088;28;20026;-77
2023/03/06 02:14:41;;;;;;;6.93;3.15;;;;;;;;;;5031543;28;20033;-77
2023/03/06 02:17:09;;;;;;;5.85;2.95;;;;;;;;;;5043653;28;20032;-77
2023/03/06 02:19:56;;;;;;;5.57;2.97;;;;;;;;;;5045209;28;20022;-77
2023/03/06 02:22:23;;;;;;;6.25;3.30;;;;;;;;;;5038131;28;20056;-77
2023/03/06 02:24:57;;;;;;;6.88;3.40;;;;;;;;;;5037682;28;20452;-77
2023/03/06 02:27:24;;;;;;;6.07;3.20;;;;;;;;;;5042810;28;20024;-77
2023/03/06 02:29:50;;;;;;;5.90;3.50;;;;;;;;;;5033457;28;20549;-77
2023/03/06 02:32:15;;;;;;;7.28;3.60;;;;;;;;;;5025412;28;20037;-77
2023/03/06 02:34:52;;;;;;;5.63;2.97;;;;;;;;;;5049828;28;20033;-77
2023/03/06 02:37:18;;;;;;;5.85;3.20;;;;;;;;;;5047358;28;20025;-77
2023/03/06 02:39:50;;;;;;;5.72;2.97;;;;;;;;;;5032298;28;20032;-77
2023/03/06 02:42:23;;;;;;;6.45;3.38;;;;;;;;;;5031142;28;20107;-77
2023/03/06 02:44:51;;;;;;;6.25;3.17;;;;;;;;;;5030531;28;20024;-77
2023/03/06 02:47:16;;;;;;;5.53;3.10;;;;;;;;;;5044569;28;20021;-77
2023/03/06 02:49:42;;;;;;;5.78;3.45;;;;;;;;;;5028609;28;20037;-77
2023/03/06 02:52:07;;;;;;;7.53;3.70;;;;;;;;;;5047327;28;20059;-77
2023/03/06 02:54:32;;;;;;;6.82;3.47;;;;;;;;;;5049048;28;20033;-77
2023/03/06 02:56:58;;;;;;;6.28;3.67;;;;;;;;;;5040915;28;20039;-77
2023/03/06 02:59:23;;;;;;;6.25;3.28;;;;;;;;;;5040351;28;20025;-77
2023/03/06 03:01:49;;;;;;;5.85;3.47;;;;;;;;;;5027866;28;20025;-77
2023/03/06 03:04:14;;;;;;;6.28;3.45;;;;;;;;;;5048036;28;20025;-77
2023/03/06 03:06:40;;;;;;;6.82;3.72;;;;;;;;;;5053498;28;20060;-77
2023/03/06 03:09:06;;;;;;;7.13;3.58;;;;;;;;;;5038391;28;20029;-77
2023/03/06 03:11:31;;;;;;;6.55;3.47;;;;;;;;;;5051101;28;20380;-77
2023/03/06 03:13:57;;;;;;;6.30;3.33;;;;;;;;;;5035597;28;20033;-77
2023/03/06 03:16:22;;;;;;;6.65;3.55;;;;;;;;;;5055338;28;20056;-77
2023/03/06 03:18:49;;;;;;;8.65;3.55;;;;;;;;;;5053108;28;20031;-77
2023/03/06 03:21:16;;;;;;;6.55;3.42;;;;;;;;;;5029242;28;20419;-77
2023/03/06 03:23:41;;;;;;;6.22;3.38;;;;;;;;;;5028613;28;20475;-77
2023/03/06 03:26:11;;;;;;;6.60;3.67;;;;;;;;;;5047713;28;20046;-77
2023/03/06 03:28:36;;;;;;;7.22;3.65;;;;;;;;;;5047306;28;20036;-77
2023/03/06 03:31:04;;;;;;;6.57;3.33;;;;;;;;;;5031476;28;20034;-77
2023/03/06 03:33:29;;;;;;;7.82;4.07;;;;;;;;;;5031970;28;20021;-77
2023/03/06 03:35:59;;;;;;;6.35;3.33;;;;;;;;;;5037573;28;20536;-77
2023/03/06 03:38:25;;;;;;;7.32;3.72;;;;;;;;;;5044938;28;20032;-77
2023/03/06 03:40:50;;;;;;;6.75;3.47;;;;;;;;;;5040453;28;20025;-77
2023/03/06 03:43:16;;;;;;;6.85;3.53;;;;;;;;;;5050032;28;20079;-77
2023/03/06 03:45:41;;;;;;;5.72;3.47;;;;;;;;;;5034505;28;20075;-77
2023/03/06 03:48:06;;;;;;;5.75;3.10;;;;;;;;;;5027425;28;20053;-77
2023/03/06 03:50:32;;;;;;;6.47;3.58;;;;;;;;;;5049464;28;20029;-77
2023/03/06 03:52:58;;;;;;;7.85;3.60;;;;;;;;;;5030559;28;20102;-77
2023/03/06 03:55:23;;;;;;;7.30;3.78;;;;;;;;;;5051672;28;20029;-77
2023/03/06 03:57:48;;;;;;;5.25;3.17;;;;;;;;;;5051065;28;20065;-77
2023/03/06 04:00:15;;;;;;;6.80;3.53;;;;;;;;;;5046640;28;20505;-77
2023/03/06 04:02:42;;;;;;;6.78;3.58;;;;;;;;;;5049505;28;20029;-77
2023/03/06 04:05:09;;;;;;;7.75;3.90;;;;;;;;;;5048406;28;20051;-77
2023/03/06 04:07:35;;;;;;;6.85;3.50;;;;;;;;;;5055405;28;20112;-77
2023/03/06 04:10:00;;;;;;;7.18;3.55;;;;;;;;;;5050991;28;20103;-77
2023/03/06 04:12:25;;;;;;;6.20;3.15;;;;;;;;;;5051156;28;20021;-77
2023/03/06 04:14:51;;;;;;;5.82;3.28;;;;;;;;;;5020169;28;20033;-77
2023/03/06 04:17:16;;;;;;;7.88;3.58;;;;;;;;;;5052355;28;20036;-77
2023/03/06 04:19:42;;;;;;;7.22;3.85;;;;;;;;;;5015266;28;20044;-77
2023/03/06 04:22:07;;;;;;;7.63;3.63;;;;;;;;;;5045804;28;20029;-77
2023/03/06 04:24:33;;;;;;;7.25;3.85;;;;;;;;;;5050612;28;20021;-77
2023/03/06 04:26:58;;;;;;;7.30;3.95;;;;;;;;;;5043212;28;20528;-76
2023/03/06 04:29:23;;;;;;;6.68;3.60;;;;;;;;;;5033084;28;20021;-77
2023/03/06 04:31:49;;;;;;;7.45;3.80;;;;;;;;;;5033155;28;20033;-77
2023/03/06 04:34:14;;;;;;;7.28;3.72;;;;;;;;;;5052001;28;20035;-77
2023/03/06 04:36:43;;;;;;;6.68;3.10;;;;;;;;;;5050822;28;20067;-76
2023/03/06 04:39:10;;;;;;;6.72;3.75;;;;;;;;;;5052717;28;21551;-77
2023/03/06 04:41:35;;;;;;;7.70;3.60;;;;;;;;;;5034168;28;20021;-77
2023/03/06 04:44:01;;;;;;;6.10;3.22;;;;;;;;;;5037231;28;20091;-77
2023/03/06 04:46:26;;;;;;;6.82;3.63;;;;;;;;;;5053407;28;20300;-77
2023/03/06 04:48:52;;;;;;;5.75;3.25;;;;;;;;;;5049534;28;20022;-77
2023/03/06 04:51:17;;;;;;;6.78;3.28;;;;;;;;;;5048763;28;20035;-77
2023/03/06 04:53:43;;;;;;;6.97;3.17;;;;;;;;;;5051495;28;21825;-77
2023/03/06 04:56:09;;;;;;;6.75;3.45;;;;;;;;;;5049908;28;20033;-77
2023/03/06 04:58:34;;;;;;;6.38;3.25;;;;;;;;;;5050144;28;20032;-76
2023/03/06 05:00:59;;;;;;;7.05;2.97;;;;;;;;;;5031277;28;20047;-77
2023/03/06 05:03:25;;;;;;;5.90;3.35;;;;;;;;;;5049754;28;20021;-77
2023/03/06 05:05:50;;;;;;;6.63;3.30;;;;;;;;;;5031273;28;20035;-77
2023/03/06 05:08:16;;;;;;;7.43;4.05;;;;;;;;;;5030020;28;20048;-77
2023/03/06 05:10:42;;;;;;;4.97;2.80;;;;;;;;;;5043501;28;20068;-76
2023/03/06 05:13:07;;;;;;;7.45;3.10;;;;;;;;;;5044940;28;20083;-77
2023/03/06 05:15:33;;;;;;;5.88;3.10;;;;;;;;;;5030356;28;20036;-77
2023/03/06 05:17:58;;;;;;;5.97;3.25;;;;;;;;;;5042441;28;20044;-77
2023/03/06 05:20:24;;;;;;;8.07;3.42;;;;;;;;;;5043037;28;20112;-77
2023/03/06 05:22:49;;;;;;;8.18;3.70;;;;;;;;;;5047546;28;20029;-77
2023/03/06 05:25:15;;;;;;;6.18;3.08;;;;;;;;;;5049228;28;20033;-77
2023/03/06 05:27:41;;;;;;;6.72;3.25;;;;;;;;;;5045578;28;20037;-76
2023/03/06 05:30:07;;;;;;;6.38;3.25;;;;;;;;;;5044703;28;20086;-76
2023/03/06 05:32:32;;;;;;;6.93;3.55;;;;;;;;;;5043305;28;20033;-77
2023/03/06 05:34:58;;;;;;;7.00;3.53;;;;;;;;;;5044862;28;20091;-76
2023/03/06 05:37:23;;;;;;;7.57;3.85;;;;;;;;;;5029712;28;20021;-77
2023/03/06 05:39:49;;;;;;;7.45;3.70;;;;;;;;;;5043505;28;20025;-76
2023/03/06 05:42:15;;;;;;;5.93;3.30;;;;;;;;;;5048793;28;20028;-76
2023/03/06 05:44:40;;;;;;;6.60;3.05;;;;;;;;;;5027397;28;20025;-76
2023/03/06 05:47:07;;;;;;;8.43;4.03;;;;;;;;;;5044047;28;20044;-76
2023/03/06 05:49:34;;;;;;;7.22;3.72;;;;;;;;;;5041720;28;20057;-76
2023/03/06 05:52:02;;;;;;;6.57;3.40;;;;;;;;;;5049388;28;20111;-76
2023/03/06 05:54:28;;;;;;;8.75;3.83;;;;;;;;;;5043329;28;20443;-76
2023/03/06 05:56:56;;;;;;;8.00;3.75;;;;;;;;;;5025411;28;20059;-76
2023/03/06 05:59:22;;;;;;;10.05;3.70;;;;;;;;;;5020670;28;20484;-76
2023/03/06 06:01:47;;;;;;;7.88;3.33;;;;;;;;;;5033039;28;20013;-76
2023/03/06 06:04:14;;;;;;;8.27;4.03;;;;;;;;;;5039891;28;20069;-76
2023/03/06 06:06:39;;;;;;;7.22;3.65;;;;;;;;;;5046335;28;20452;-76
2023/03/06 06:09:05;;;;;;;7.88;3.90;;;;;;;;;;5035145;28;20156;-76
2023/03/06 06:11:30;;;;;;;8.38;4.28;;;;;;;;;;5045124;28;20028;-76
2023/03/06 06:13:55;;;;;;;9.48;4.00;;;;;;;;;;5034291;28;20029;-76
2023/03/06 06:16:21;;;;;;;7.78;3.92;;;;;;;;;;5049595;28;20056;-76
2023/03/06 06:18:46;;;;;;;8.45;4.28;;;;;;;;;;5037054;28;20374;-76
2023/03/06 06:21:13;;;;;;;7.63;3.90;;;;;;;;;;5024208;28;20536;-76
2023/03/06 06:23:39;;;;;;;7.57;3.85;;;;;;;;;;5046617;28;20107;-76
2023/03/06 06:26:06;;;;;;;9.63;4.25;;;;;;;;;;5046158;28;20120;-76
2023/03/06 06:28:32;;;;;;;7.30;3.63;;;;;;;;;;5049679;28;20029;-76
2023/03/06 06:30:58;;;;;;;9.50;4.53;;;;;;;;;;5046703;28;20032;-76
2023/03/06 06:33:24;;;;;;;7.40;3.90;;;;;;;;;;5030790;28;20021;-76
2023/03/06 06:35:50;;;;;;;8.55;4.30;;;;;;;;;;5039967;28;20080;-76
2023/03/06 06:38:15;;;;;;;8.73;4.50;;;;;;;;;;5046271;28;20033;-76
2023/03/06 06:40:41;;;;;;;8.13;4.25;;;;;;;;;;5047847;28;20021;-76
2023/03/06 06:43:06;;;;;;;9.35;4.40;;;;;;;;;;5052094;28;20108;-76
2023/03/06 06:45:32;;;;;;;9.93;4.20;;;;;;;;;;5053939;28;20025;-76
2023/03/06 06:47:57;;;;;;;9.32;4.15;;;;;;;;;;5053831;28;20079;-76
2023/03/06 06:50:22;;;;;;;9.38;4.28;;;;;;;;;;5053260;28;20039;-76
2023/03/06 06:52:48;;;;;;;10.63;4.53;;;;;;;;;;5054935;28;20021;-75
2023/03/06 06:55:13;;;;;;;9.77;4.47;;;;;;;;;;5053841;28;20587;-76
2023/03/06 06:57:40;;;;;;;9.65;4.30;;;;;;;;;;5051305;28;20108;-75
2023/03/06 07:00:06;;;;;;;9.15;4.28;;;;;;;;;;5033896;28;20032;-76
2023/03/06 07:02:32;;;;;;;9.70;5.10;;;;;;;;;;5034543;28;20040;-76
2023/03/06 07:04:57;;;;;;;9.98;4.15;;;;;;;;;;5054716;28;20503;-76
2023/03/06 07:07:23;;;;;;;9.93;5.20;;;;;;;;;;5052727;28;20029;-76
2023/03/06 07:09:48;;;;;;;9.80;4.43;;;;;;;;;;5057692;28;20031;-76
2023/03/06 07:12:14;;;;;;;12.18;4.95;;;;;;;;;;5038315;28;20021;-76
2023/03/06 07:14:41;;;;;;;10.05;4.85;;;;;;;;;;5034430;28;20056;-76
2023/03/06 07:17:07;;;;;;;9.90;5.13;;;;;;;;;;5052415;28;20100;-76
2023/03/06 07:19:32;;;;;;;10.10;4.57;;;;;;;;;;5052272;28;20423;-76
2023/03/06 07:21:59;;;;;;;9.85;4.78;;;;;;;;;;5031952;28;20033;-76
2023/03/06 07:24:24;;;;;;;9.98;4.72;;;;;;;;;;5035368;28;20021;-76
2023/03/06 07:26:50;;;;;;;9.75;4.90;;;;;;;;;;5048617;28;20086;-76
2023/03/06 07:29:16;;;;;;;9.45;4.20;;;;;;;;;;5035301;28;20032;-76
2023/03/06 07:31:41;;;;;;;9.70;4.70;;;;;;;;;;5033144;28;20482;-76
2023/03/06 07:34:11;;;;;;;7.90;3.90;;;;;;;;;;5031365;28;20039;-76
2023/03/06 07:36:39;;;;;;;8.82;4.30;;;;;;;;;;5026055;28;20036;-76
2023/03/06 07:39:08;;;;;;;8.77;4.38;;;;;;;;;;5031793;28;20048;-76
2023/03/06 07:41:33;;;;;;;7.45;3.75;;;;;;;;;;5047206;28;20025;-76
2023/03/06 07:44:00;;;;;;;7.55;3.97;;;;;;;;;;5030885;28;20039;-76
2023/03/06 07:46:25;;;;;;;11.27;4.80;;;;;;;;;;5027368;28;20033;-76
2023/03/06 07:48:50;;;;;;;8.23;4.15;;;;;;;;;;5036647;28;20028;-76
2023/03/06 07:51:18;;;;;;;8.57;4.22;;;;;;;;;;5036071;28;20117;-75
2023/03/06 07:53:44;;;;;;;8.48;4.70;;;;;;;;;;5034418;28;20532;-76
2023/03/06 07:56:10;;;;;;;7.88;4.50;;;;;;;;;;5051096;28;20112;-76
2023/03/06 07:58:38;;;;;;;9.88;4.78;;;;;;;;;;5039244;28;20025;-76
2023/03/06 08:01:05;;;;;;;9.02;4.63;;;;;;;;;;5050732;28;20392;-76
2023/03/06 08:03:31;;;;;;;11.00;5.03;;;;;;;;;;5037098;28;20028;-76
2023/03/06 08:06:08;;;;;;;9.40;4.80;;;;;;;;;;5052558;28;20919;-76
2023/03/06 08:08:35;;;;;;;8.65;4.60;;;;;;;;;;5052552;28;20033;-75
2023/03/06 08:11:01;;;;;;;9.25;4.60;;;;;;;;;;5035196;28;20028;-76
2023/03/06 08:13:26;;;;;;;9.23;4.93;;;;;;;;;;5035402;28;20119;-76
2023/03/06 08:15:52;;;;;;;8.75;4.63;;;;;;;;;;5031970;28;20028;-76
2023/03/06 08:18:17;;;;;;;9.20;4.32;;;;;;;;;;5040658;28;20037;-76
2023/03/06 08:20:43;;;;;;;10.05;4.35;;;;;;;;;;5052827;28;20055;-76
2023/03/06 08:23:08;;;;;;;8.82;4.57;;;;;;;;;;5052306;28;20029;-76
2023/03/06 08:25:33;;;;;;;7.93;4.57;;;;;;;;;;5029266;28;20052;-76
2023/03/06 08:27:59;;;;;;;7.80;4.38;;;;;;;;;;5042898;28;20032;-75
2023/03/06 08:30:24;;;;;;;9.95;4.93;;;;;;;;;;5052394;28;20032;-76
2023/03/06 08:32:50;;;;;;;7.80;3.70;;;;;;;;;;5033849;28;20048;-76
2023/03/06 08:35:15;;;;;;;6.80;3.65;;;;;;;;;;5043718;28;20051;-76
2023/03/06 08:37:40;;;;;;;5.80;2.97;;;;;;;;;;5035141;28;20057;-75
2023/03/06 08:40:07;;;;;;;6.10;2.88;;;;;;;;;;5047786;28;20035;-76
2023/03/06 08:42:32;;;;;;;6.32;3.00;;;;;;;;;;5035522;28;20167;-76
2023/03/06 08:44:58;;;;;;;4.47;2.53;;;;;;;;;;5033517;28;20533;-76
2023/03/06 08:47:23;;;;;;;6.57;3.08;;;;;;;;;;5050331;28;20024;-76
2023/03/06 08:49:48;;;;;;;6.20;3.28;;;;;;;;;;5051182;28;20060;-76
2023/03/06 08:52:15;;;;;;;6.97;3.05;;;;;;;;;;5029151;28;20476;-76
2023/03/06 08:54:41;;;;;;;6.18;3.00;;;;;;;;;;5032914;28;20032;-76
2023/03/06 08:57:07;;;;;;;5.47;2.83;;;;;;;;;;5046105;28;20028;-76
2023/03/06 08:59:34;;;;;;;4.60;2.78;;;;;;;;;;5048527;28;20029;-76
2023/03/06 09:02:00;;;;;;;4.80;2.55;;;;;;;;;;5031484;28;20103;-76
2023/03/06 09:04:29;;;;;;;4.65;2.72;;;;;;;;;;5046609;28;20021;-76
2023/03/06 09:06:54;;;;;;;4.85;2.75;;;;;;;;;;5048934;28;20024;-76
2023/03/06 09:09:19;;;;;;;5.25;3.03;;;;;;;;;;5047276;28;20035;-76
2023/03/06 09:11:45;;;;;;;4.13;2.13;;;;;;;;;;5050895;28;20473;-76
2023/03/06 09:14:10;;;;;;;3.83;2.10;;;;;;;;;;5031706;28;20051;-76
2023/03/06 09:16:36;;;;;;;4.38;2.17;;;;;;;;;;5049857;28;20052;-76
2023/03/06 09:19:01;;;;;;;5.07;2.40;;;;;;;;;;5050549;28;20025;-76
2023/03/06 09:21:27;;;;;;;3.90;2.17;;;;;;;;;;5050659;28;20115;-76
2023/03/06 09:23:53;;;;;;;4.30;2.35;;;;;;;;;;5043360;28;20112;-76
2023/03/06 09:26:18;;;;;;;3.78;2.13;;;;;;;;;;5048502;28;20047;-76
2023/03/06 09:28:44;;;;;;;4.50;2.10;;;;;;;;;;5057831;28;20052;-76
2023/03/06 09:31:16;;;;;;;3.50;2.35;;;;;;;;;;5033435;28;20548;-76
2023/03/06 09:33:42;;;;;;;3.83;1.90;;;;;;;;;;5030116;28;20378;-76
2023/03/06 09:36:14;;;;;;;2.95;1.60;;;;;;;;;;5051953;28;20025;-76
2023/03/06 09:38:39;;;;;;;3.40;1.75;;;;;;;;;;5045224;28;20035;-76
2023/03/06 09:41:21;;;;;;;3.90;1.88;;;;;;;;;;5048965;28;20028;-76
2023/03/06 09:43:48;;;;;;;3.55;1.80;;;;;;;;;;5035733;28;20053;-76
2023/03/06 09:46:52;;;;;;;4.85;1.90;;;;;;;;;;5033753;28;20059;-76
2023/03/06 09:49:32;;;;;;;2.85;1.58;;;;;;;;;;5031408;28;20515;-76
2023/03/06 09:52:15;;;;;;;4.15;1.50;;;;;;;;;;5052439;28;20449;-76
2023/03/06 09:54:52;;;;;;;;;;;;;;;;;;5041386;28;20071;-76
2023/03/06 09:57:34;;;;;;;3.78;1.50;;;;;;;;;;5044378;28;19966;-76
2023/03/06 10:00:05;;;;;;;3.20;1.65;;;;;;;;;;5029484;28;20469;-76
2023/03/06 10:02:39;;;;;;;3.40;1.70;;;;;;;;;;5032932;28;20060;-76
2023/03/06 10:05:11;;;;;;;2.58;1.20;;;;;;;;;;5050015;28;20021;-76
2023/03/06 10:07:42;;;;;;;2.47;1.10;;;;;;;;;;5032336;28;20021;-76
2023/03/06 10:10:17;;;;;;;1.85;1.10;;;;;;;;;;5048881;28;20028;-76
2023/03/06 10:13:04;;;;;;;2.28;1.13;;;;;;;;;;5039576;28;20496;-76
2023/03/06 10:15:36;;;;;;;4.88;1.55;;;;;;;;;;5048416;28;20389;-76
2023/03/06 10:18:03;;;;;;;2.60;1.50;;;;;;;;;;5049797;28;20021;-76
2023/03/06 10:21:01;;;;;;;2.35;1.35;;;;;;;;;;5034072;28;20020;-76
2023/03/06 10:23:40;;;;;;;2.50;1.55;;;;;;;;;;5032627;28;20042;-76
2023/03/06 10:26:21;;;;;;;2.55;1.52;;;;;;;;;;5021129;28;20026;-76
2023/03/06 10:28:52;;;;;;;3.55;1.45;;;;;;;;;;5047320;28;20070;-76
2023/03/06 10:31:22;;;;;;;2.38;1.40;;;;;;;;;;5032277;28;20129;-76
2023/03/06 10:33:57;;;;;;;3.65;1.75;;;;;;;;;;5048747;28;20040;-76
2023/03/06 10:36:26;;;;;;;3.83;1.80;;;;;;;;;;5051935;28;20021;-76
2023/03/06 10:38:53;;;;;;;2.83;1.55;;;;;;;;;;5050922;28;20025;-76
2023/03/06 10:41:27;;;;;;;2.35;1.38;;;;;;;;;;5033534;28;20024;-76
2023/03/06 10:43:58;;;;;;;3.17;1.33;;;;;;;;;;5048995;28;20470;-76
2023/03/06 10:46:36;;;;;;;3.95;1.40;;;;;;;;;;5047925;28;20543;-76
2023/03/06 10:49:05;;;;;;;3.85;1.33;;;;;;;;;;5049728;28;20033;-76
2023/03/06 10:51:32;;;;;;;3.47;1.77;;;;;;;;;;5032569;28;20123;-76
2023/03/06 10:54:17;;;;;;;2.80;1.67;;;;;;;;;;5051741;28;20021;-76
2023/03/06 10:56:45;;;;;;;3.55;1.90;;;;;;;;;;5032156;28;20423;-76
2023/03/06 10:59:27;;;;;;;3.67;2.05;;;;;;;;;;5050292;28;20083;-77
2023/03/06 11:01:57;;;;;;;3.45;1.90;;;;;;;;;;5032469;28;20060;-76
2023/03/06 11:04:27;;;;;;;3.33;2.03;;;;;;;;;;5033197;28;20120;-76
2023/03/06 11:07:16;;;;;;;4.50;1.98;;;;;;;;;;5031567;28;20028;-76
2023/03/06 11:10:06;;;;;;;3.45;1.60;;;;;;;;;;5048223;28;20025;-76
2023/03/06 11:12:34;;;;;;;2.35;1.40;;;;;;;;;;5048835;28;20072;-76
2023/03/06 11:15:08;;;;;;;4.22;1.80;;;;;;;;;;5048147;28;20037;-76
2023/03/06 11:17:48;;;;;;;4.13;1.77;;;;;;;;;;5029363;28;20469;-76
2023/03/06 11:20:19;;;;;;;3.85;2.20;;;;;;;;;;5047724;28;20037;-76
2023/03/06 11:23:06;;;;;;;5.40;2.42;;;;;;;;;;5029904;28;20564;-76
2023/03/06 11:25:37;;;;;;;5.10;2.55;;;;;;;;;;5050684;28;20033;-76
2023/03/06 11:28:17;;;;;;;4.85;2.38;;;;;;;;;;5030565;28;20037;-77
2023/03/06 11:30:46;;;;;;;4.43;2.15;;;;;;;;;;5035211;28;20025;-76
2023/03/06 11:33:27;;;;;;;5.43;2.47;;;;;;;;;;5025668;28;20032;-76
2023/03/06 11:36:02;;;;;;;5.43;2.60;;;;;;;;;;5052798;28;20060;-76
2023/03/06 11:38:43;;;;;;;5.10;2.65;;;;;;;;;;5036866;28;20021;-76
2023/03/06 11:41:32;;;;;;;6.35;3.28;;;;;;;;;;5027415;28;20033;-76
2023/03/06 11:44:04;;;;;;;4.60;2.95;;;;;;;;;;5050348;28;20029;-77
2023/03/06 11:46:38;;;;;;;5.10;3.00;;;;;;;;;;5047512;28;20412;-77
2023/03/06 11:49:18;;;;;;;6.05;3.00;;;;;;;;;;5034454;28;20102;-77
2023/03/06 11:51:50;;;;;;;4.47;2.90;;;;;;;;;;5019201;28;20460;-76
2023/03/06 11:54:15;;;;;;;4.90;2.70;;;;;;;;;;5052597;28;20107;-76
2023/03/06 11:56:44;;;;;;;4.70;2.67;;;;;;;;;;5034025;28;20154;-76
2023/03/06 11:59:47;;;;;;;4.20;2.40;;;;;;;;;;5051434;28;20111;-76
2023/03/06 12:02:38;;;;;;;4.55;2.53;;;;;;;;;;5033621;28;20025;-76
2023/03/06 12:05:27;;;;;;;6.00;2.45;;;;;;;;;;5033863;28;20491;-76
2023/03/06 12:08:02;;;;;;;3.90;1.92;;;;;;;;;;5034836;28;20025;-76
2023/03/06 12:10:44;;;;;;;4.68;2.30;;;;;;;;;;5054731;28;20502;-76
2023/03/06 12:13:27;;;;;;;3.97;2.25;;;;;;;;;;5033159;28;20036;-76
2023/03/06 12:16:04;;;;;;;4.32;2.28;;;;;;;;;;5053930;28;20041;-76
2023/03/06 12:18:54;;;;;;;4.38;2.17;;;;;;;;;;5052282;28;20025;-76
2023/03/06 12:21:39;;;;;;;4.20;2.63;;;;;;;;;;5033900;28;20032;-76
2023/03/06 12:24:11;;;;;;;5.13;2.60;;;;;;;;;;5022541;28;20037;-76
2023/03/06 12:26:41;;;;;;;5.68;3.13;;;;;;;;;;5035803;28;20032;-76
2023/03/06 12:29:27;;;;;;;6.78;3.83;;;;;;;;;;5053368;28;20389;-76
2023/03/06 12:31:52;;;;;;;6.72;3.58;;;;;;;;;;5054173;28;20030;-76
2023/03/06 12:34:39;;;;;;;6.68;4.20;;;;;;;;;;5035660;28;20028;-76
2023/03/06 12:37:24;;;;;;;6.97;4.15;;;;;;;;;;5046171;28;20544;-76
2023/03/06 12:40:05;;;;;;;7.10;4.43;;;;;;;;;;5049849;28;20028;-77
2023/03/06 12:42:55;;;;;;;9.00;4.82;;;;;;;;;;5034782;28;20052;-77
2023/03/06 12:45:29;;;;;;;7.47;4.18;;;;;;;;;;5020803;28;20074;-76
2023/03/06 12:47:55;;;;;;;7.60;4.28;;;;;;;;;;5038223;28;20024;-76
2023/03/06 12:50:28;;;;;;;8.52;4.60;;;;;;;;;;5053998;28;20025;-76
2023/03/06 12:52:56;;;;;;;6.85;3.97;;;;;;;;;;5051218;28;20029;-76
2023/03/06 12:55:23;;;;;;;10.45;4.68;;;;;;;;;;5035973;28;20032;-76
2023/03/06 12:57:49;;;;;;;8.13;4.38;;;;;;;;;;5026607;28;20024;-77
2023/03/06 13:00:33;;;;;;;8.07;3.92;;;;;;;;;;5018076;28;20550;-77
2023/03/06 13:03:17;;;;;;;8.38;4.47;;;;;;;;;;5046819;28;20389;-76
2023/03/06 13:06:13;;;;;;;7.15;4.40;;;;;;;;;;5021777;28;20481;-77
2023/03/06 13:09:17;;;;;;;7.55;4.40;;;;;;;;;;5046586;28;20124;-77
2023/03/06 13:11:57;;;;;;;6.82;3.92;;;;;;;;;;5037711;28;20146;-77
2023/03/06 13:14:33;;;;;;;7.25;4.00;;;;;;;;;;5030163;28;20556;-77
2023/03/06 13:17:23;;;;;;;7.07;4.15;;;;;;;;;;5048327;28;20496;-77
2023/03/06 13:20:24;;;;;;;7.60;4.20;;;;;;;;;;5029857;28;20043;-77
2023/03/06 13:22:49;;;;;;;8.43;3.80;;;;;;;;;;5042227;28;20485;-77
2023/03/06 13:25:17;;;;;;;7.15;4.05;;;;;;;;;;5049551;28;20032;-77
2023/03/06 13:27:53;;;;;;;6.25;3.67;;;;;;;;;;5049237;28;20037;-77
2023/03/06 13:30:45;;;;;;;5.10;3.17;;;;;;;;;;5046997;28;20036;-77
2023/03/06 13:33:37;;;;;;;7.85;3.58;;;;;;;;;;5044518;28;20443;-76
2023/03/06 13:36:20;;;;;;;7.13;4.00;;;;;;;;;;5042699;28;20028;-77
2023/03/06 13:38:51;;;;;;;7.68;3.25;;;;;;;;;;5031524;28;20060;-76
2023/03/06 13:41:26;;;;;;;6.13;3.60;;;;;;;;;;5044497;28;20025;-76
2023/03/06 13:43:56;;;;;;;8.05;3.72;;;;;;;;;;5046982;28;20501;-77
2023/03/06 13:46:27;;;;;;;6.43;3.65;;;;;;;;;;5041966;28;20081;-77
2023/03/06 13:49:05;;;;;;;6.95;4.13;;;;;;;;;;5043793;28;20148;-77
2023/03/06 13:51:38;;;;;;;7.57;3.67;;;;;;;;;;5045466;28;20530;-77
2023/03/06 13:54:26;;;;;;;6.55;3.08;;;;;;;;;;5039249;28;20316;-76
2023/03/06 13:57:03;;;;;;;5.53;3.13;;;;;;;;;;5045725;28;20023;-76
2023/03/06 14:00:07;;;;;;;7.57;3.30;;;;;;;;;;5046323;28;20074;-76
2023/03/06 14:03:00;;;;;;;6.20;2.90;;;;;;;;;;5029033;28;20029;-76
2023/03/06 14:05:41;;;;;;;5.57;3.13;;;;;;;;;;5043426;28;20456;-76
2023/03/06 14:08:13;;;;;;;5.82;3.30;;;;;;;;;;5028177;28;20029;-76
2023/03/06 14:10:39;;;;;;;6.38;3.72;;;;;;;;;;5046070;28;20484;-76
2023/03/06 14:13:14;;;;;;;6.20;3.55;;;;;;;;;;5025885;28;20571;-76
2023/03/06 14:15:43;;;;;;;6.38;3.60;;;;;;;;;;5029173;28;20032;-76
2023/03/06 14:18:11;;;;;;;6.82;3.70;;;;;;;;;;5024354;28;20032;-76
2023/03/06 14:20:43;;;;;;;8.98;4.38;;;;;;;;;;5027121;28;20032;-76
2023/03/06 14:23:20;;;;;;;7.18;4.10;;;;;;;;;;5039541;28;20035;-76
2023/03/06 14:25:50;;;;;;;7.38;3.95;;;;;;;;;;5044108;28;20033;-76
2023/03/06 14:28:32;;;;;;;7.38;4.50;;;;;;;;;;5044597;28;20508;-76
2023/03/06 14:30:59;;;;;;;9.68;4.82;;;;;;;;;;5042195;28;20029;-77
2023/03/06 14:33:36;;;;;;;7.93;4.65;;;;;;;;;;5047057;28;20393;-76
2023/03/06 14:36:05;;;;;;;9.02;5.20;;;;;;;;;;5025066;28;20021;-76
2023/03/06 14:38:35;;;;;;;10.15;5.18;;;;;;;;;;5030725;28;20085;-76
2023/03/06 14:41:02;;;;;;;10.00;5.32;;;;;;;;;;5043470;28;20037;-76
2023/03/06 14:43:29;;;;;;;12.18;5.50;;;;;;;;;;5044177;28;20043;-76
2023/03/06 14:46:00;;;;;;;9.27;5.15;;;;;;;;;;5045947;28;20058;-76
2023/03/06 14:48:38;;;;;;;9.93;5.40;;;;;;;;;;5027397;28;20046;-76
2023/03/06 14:51:05;;;;;;;10.15;5.97;;;;;;;;;;5029262;28;20682;-76
2023/03/06 14:53:33;;;;;;;10.95;5.75;;;;;;;;;;5047229;28;20488;-76
2023/03/06 14:56:02;;;;;;;10.07;5.72;;;;;;;;;;5041385;28;20055;-76
2023/03/06 14:58:32;;;;;;;9.32;5.75;;;;;;;;;;5040400;28;20049;-76